Time;durP1;ratioP1;P1;durP2;ratioP2;P2;SDS_P1;SDS_P2;PMS_P1;PMS_P2;Temp;Humidity;BMP_temperature;BMP_pressure;BME280_temperature;BME280_humidity;BME280_pressure;Samples;Min_cycle;Max_cycle;Signal;HPM_P1;HPM_P2
2023/05/05 00:00:02;;;;;;;9.57;2.85;;;;;;;17.90;39.49;101691.84;5057641;27;97839;-79
2023/05/05 00:02:28;;;;;;;12.68;2.55;;;;;;;18.00;39.45;101691.38;5054624;27;98030;-79
2023/05/05 00:04:55;;;;;;;11.50;3.40;;;;;;;17.90;39.34;101694.53;5060011;27;96682;-78
2023/05/05 00:07:23;;;;;;;10.23;3.22;;;;;;;17.92;39.51;101689.94;5049862;27;97592;-78
2023/05/05 00:09:50;;;;;;;9.80;2.65;;;;;;;17.63;39.79;101695.03;5058023;27;99339;-78
2023/05/05 00:12:17;;;;;;;9.82;2.58;;;;;;;17.76;39.42;101688.13;5061056;27;97744;-78
2023/05/05 00:14:43;;;;;;;7.53;2.83;;;;;;;17.54;40.00;101690.97;5047424;27;98530;-79
2023/05/05 00:17:10;;;;;;;8.07;2.90;;;;;;;17.60;39.73;101685.31;5046935;27;97888;-80
2023/05/05 00:19:36;;;;;;;10.38;3.10;;;;;;;17.77;39.49;101688.06;5047273;27;97939;-78
2023/05/05 00:22:03;;;;;;;6.75;2.70;;;;;;;17.83;39.15;101690.44;5048687;27;101223;-79
2023/05/05 00:24:31;;;;;;;8.70;2.50;;;;;;;17.51;39.79;101678.66;5034441;27;98932;-78
2023/05/05 00:26:57;;;;;;;11.88;3.42;;;;;;;17.72;39.25;101684.75;5032844;27;98716;-78
2023/05/05 00:29:24;;;;;;;7.93;3.00;;;;;;;17.61;39.42;101679.06;5036830;27;97747;-79
2023/05/05 00:31:51;;;;;;;8.82;2.72;;;;;;;17.64;39.19;101686.09;5044123;27;99187;-80
2023/05/05 00:34:18;;;;;;;11.80;3.00;;;;;;;17.35;39.75;101679.47;5042672;27;96953;-79
2023/05/05 00:36:44;;;;;;;9.60;2.53;;;;;;;17.57;39.28;101676.59;5051374;27;97236;-79
2023/05/05 00:39:11;;;;;;;8.30;2.75;;;;;;;17.37;39.76;101669.56;5044020;27;97738;-78
2023/05/05 00:41:39;;;;;;;12.73;2.78;;;;;;;17.57;39.26;101669.47;5036349;27;100982;-79
2023/05/05 00:44:05;;;;;;;13.23;2.70;;;;;;;17.48;39.27;101673.44;5040270;27;96901;-80
2023/05/05 00:46:34;;;;;;;7.85;2.58;;;;;;;17.46;39.43;101663.75;5037982;27;96990;-79
2023/05/05 00:49:00;;;;;;;8.38;2.75;;;;;;;17.28;39.72;101668.22;5044292;27;98907;-79
2023/05/05 00:51:28;;;;;;;7.22;2.85;;;;;;;17.39;39.37;101659.69;5045223;27;99194;-79
2023/05/05 00:53:54;;;;;;;9.20;2.90;;;;;;;17.31;39.64;101661.88;5032726;27;96957;-78
2023/05/05 00:56:23;;;;;;;8.35;2.50;;;;;;;17.30;39.57;101662.81;5034699;27;96940;-78
2023/05/05 00:58:51;;;;;;;9.35;2.80;;;;;;;17.14;39.84;101663.53;5032938;27;102129;-78
2023/05/05 01:01:17;;;;;;;9.00;3.05;;;;;;;17.30;39.83;101660.13;5046136;27;102241;-80
2023/05/05 01:03:44;;;;;;;11.38;2.80;;;;;;;17.34;39.52;101662.56;5041861;27;96801;-79
2023/05/05 01:06:23;;;;;;;7.10;2.58;;;;;;;17.12;40.01;101665.44;5038759;27;96896;-78
2023/05/05 01:09:04;;;;;;;9.30;2.75;;;;;;;17.20;39.83;101659.69;5032642;27;99827;-78
2023/05/05 01:11:35;;;;;;;6.63;2.70;;;;;;;17.14;39.87;101657.31;5044567;27;98925;-79
2023/05/05 01:14:14;;;;;;;7.45;3.00;;;;;;;17.12;39.89;101654.75;5038879;27;98502;-78
2023/05/05 01:16:55;;;;;;;9.23;3.00;;;;;;;17.14;39.82;101658.19;5044416;27;96916;-78
2023/05/05 01:19:44;;;;;;;11.25;2.38;;;;;;;17.25;39.72;101662.16;5037863;27;99320;-77
2023/05/05 01:22:14;;;;;;;10.98;2.50;;;;;;;16.88;40.29;101655.91;5040193;27;99278;-78
2023/05/05 01:24:56;;;;;;;11.98;3.05;;;;;;;17.19;39.79;101647.31;5040161;27;96908;-77
2023/05/05 01:27:50;;;;;;;10.02;2.92;;;;;;;17.17;39.83;101657.19;5039738;27;97698;-78
2023/05/05 01:30:33;;;;;;;7.57;2.67;;;;;;;17.09;39.91;101643.34;5043876;27;99184;-78
2023/05/05 01:33:06;;;;;;;10.80;2.67;;;;;;;17.11;39.88;101653.03;5041876;27;100934;-80
2023/05/05 01:35:37;;;;;;;8.32;3.03;;;;;;;17.19;39.40;101658.00;5042411;27;97749;-79
2023/05/05 01:38:09;;;;;;;9.75;3.15;;;;;;;17.22;39.46;101649.81;5039144;27;97052;-81
2023/05/05 01:40:41;;;;;;;9.25;2.72;;;;;;;17.09;39.76;101648.69;5044592;27;99438;-79
2023/05/05 01:43:10;;;;;;;12.55;3.67;;;;;;;16.99;39.84;101656.28;5043089;27;99210;-80
2023/05/05 01:45:42;;;;;;;11.30;3.10;;;;;;;16.95;40.00;101651.16;5046061;27;96768;-81
2023/05/05 01:48:11;;;;;;;9.00;2.88;;;;;;;16.95;39.97;101660.03;5037660;27;96824;-80
2023/05/05 01:50:41;;;;;;;6.05;2.70;;;;;;;17.04;39.84;101656.94;5044866;27;98870;-79
2023/05/05 01:53:10;;;;;;;9.23;2.50;;;;;;;16.99;39.79;101656.28;5036885;27;100828;-78
2023/05/05 01:55:39;;;;;;;11.52;2.88;;;;;;;16.74;40.48;101653.00;5048419;27;97178;-78
2023/05/05 01:58:07;;;;;;;10.90;3.00;;;;;;;16.80;40.29;101647.41;5044580;27;97076;-79
2023/05/05 02:00:34;;;;;;;9.20;2.70;;;;;;;16.72;40.35;101650.44;5040574;27;98178;-79
2023/05/05 02:03:04;;;;;;;8.95;2.75;;;;;;;16.69;40.48;101650.56;5044205;27;98856;-79
2023/05/05 02:05:35;;;;;;;10.52;2.88;;;;;;;16.74;40.38;101645.00;5046671;27;96788;-80
2023/05/05 02:08:04;;;;;;;6.40;2.50;;;;;;;16.79;40.79;101645.69;5042621;27;98721;-79
2023/05/05 02:10:31;;;;;;;10.00;2.47;;;;;;;16.82;40.40;101641.97;5039689;27;98710;-80
2023/05/05 02:13:00;;;;;;;10.57;2.60;;;;;;;16.79;40.33;101648.34;5041061;27;98941;-78
2023/05/05 02:15:28;;;;;;;6.97;2.28;;;;;;;16.74;40.43;101647.69;5036648;27;98966;-78
2023/05/05 02:17:56;;;;;;;7.70;3.05;;;;;;;16.67;40.53;101643.59;5048414;27;96889;-79
2023/05/05 02:20:24;;;;;;;13.35;2.50;;;;;;;16.67;40.61;101636.41;5043382;27;98449;-79
2023/05/05 02:22:52;;;;;;;6.32;2.60;;;;;;;16.54;40.81;101637.91;5037748;27;99768;-79
2023/05/05 02:25:19;;;;;;;7.22;2.35;;;;;;;16.78;40.23;101643.94;5042475;27;97181;-78
2023/05/05 02:27:47;;;;;;;9.48;3.20;;;;;;;16.64;40.33;101641.06;5043355;27;96872;-79
2023/05/05 02:30:17;;;;;;;11.00;2.95;;;;;;;16.59;40.44;101645.72;5038223;27;99454;-79
2023/05/05 02:32:48;;;;;;;11.15;2.80;;;;;;;16.57;40.50;101639.56;5042055;27;98822;-79
2023/05/05 02:35:19;;;;;;;11.65;3.35;;;;;;;16.59;40.39;101637.72;5049500;27;96739;-79
2023/05/05 02:37:50;;;;;;;7.07;2.53;;;;;;;16.48;40.76;101642.66;5042773;27;97023;-78
2023/05/05 02:40:24;;;;;;;9.52;2.40;;;;;;;16.47;40.71;101632.94;5038781;27;101398;-79
2023/05/05 02:42:53;;;;;;;5.03;2.30;;;;;;;16.64;40.15;101636.59;5046967;27;101628;-79
2023/05/05 02:45:22;;;;;;;8.63;2.88;;;;;;;16.45;40.66;101635.66;5052223;27;97914;-79
2023/05/05 02:47:48;;;;;;;5.60;2.45;;;;;;;16.50;40.83;101632.78;5048325;27;96825;-78
2023/05/05 02:50:15;;;;;;;6.60;2.67;;;;;;;16.28;41.02;101628.41;5039654;27;97911;-78
2023/05/05 02:52:42;;;;;;;6.53;2.80;;;;;;;16.32;40.80;101629.16;5045450;27;98975;-79
2023/05/05 02:55:09;;;;;;;13.40;2.92;;;;;;;16.41;40.62;101633.22;5046813;27;96890;-79
2023/05/05 02:57:41;;;;;;;8.32;3.10;;;;;;;16.42;40.62;101641.13;5043016;27;96926;-79
2023/05/05 03:00:14;;;;;;;12.23;4.45;;;;;;;16.58;40.50;101636.84;5037973;27;98860;-79
2023/05/05 03:02:46;;;;;;;13.23;4.05;;;;;;;16.46;40.67;101631.19;5041121;27;98808;-78
2023/05/05 03:05:19;;;;;;;6.50;2.72;;;;;;;16.50;40.61;101632.78;5037515;27;97755;-79
2023/05/05 03:07:54;;;;;;;6.95;3.05;;;;;;;16.53;40.56;101629.97;5041684;27;96823;-78
2023/05/05 03:10:26;;;;;;;6.28;2.90;;;;;;;16.50;40.45;101632.78;5040688;27;98844;-79
2023/05/05 03:12:55;;;;;;;10.65;4.10;;;;;;;16.43;40.48;101629.53;5045392;27;96952;-79
2023/05/05 03:15:26;;;;;;;7.10;3.28;;;;;;;16.43;40.37;101634.88;5041713;27;97409;-78
2023/05/05 03:17:53;;;;;;;11.23;3.70;;;;;;;16.39;40.43;101633.28;5048861;27;97006;-78
2023/05/05 03:20:21;;;;;;;9.10;3.20;;;;;;;16.38;40.58;101633.34;5042509;27;98777;-78
2023/05/05 03:22:48;;;;;;;8.73;2.97;;;;;;;16.35;40.52;101627.22;5045204;27;97746;-79
2023/05/05 03:25:14;;;;;;;11.05;4.65;;;;;;;16.44;40.36;101631.25;5053910;27;96977;-78
2023/05/05 03:27:41;;;;;;;8.77;3.40;;;;;;;16.47;40.46;101633.81;5049033;27;96991;-79
2023/05/05 03:30:10;;;;;;;9.95;3.42;;;;;;;16.38;40.59;101633.34;5048319;27;97907;-78
2023/05/05 03:32:36;;;;;;;9.73;3.28;;;;;;;16.47;40.45;101643.63;5048052;27;98855;-78
2023/05/05 03:35:03;;;;;;;9.23;3.50;;;;;;;16.42;40.48;101640.25;5047041;27;96852;-79
2023/05/05 03:37:29;;;;;;;10.93;3.17;;;;;;;16.37;40.47;101642.28;5047347;27;96925;-78
2023/05/05 03:39:56;;;;;;;18.40;3.00;;;;;;;16.45;40.53;101640.13;5045197;27;98866;-78
2023/05/05 03:42:22;;;;;;;13.85;3.97;;;;;;;16.35;40.49;101640.53;5041616;27;97761;-77
2023/05/05 03:44:52;;;;;;;8.05;3.25;;;;;;;16.25;40.68;101643.72;5049213;27;97483;-79
2023/05/05 03:47:20;;;;;;;10.35;3.33;;;;;;;16.38;40.31;101644.00;5046229;27;96916;-79
2023/05/05 03:49:46;;;;;;;13.02;3.85;;;;;;;16.43;40.25;101631.31;5047224;27;99396;-74
2023/05/05 03:52:13;;;;;;;7.47;3.08;;;;;;;16.34;40.48;101632.63;5040561;27;100315;-73
2023/05/05 03:54:39;;;;;;;11.55;4.03;;;;;;;16.31;40.69;101633.63;5041580;27;99774;-73
2023/05/05 03:57:05;;;;;;;10.68;3.30;;;;;;;16.16;41.15;101628.09;5042117;27;96941;-74
2023/05/05 03:59:32;;;;;;;8.23;3.20;;;;;;;16.32;40.65;101629.16;5038005;27;101393;-73
2023/05/05 04:01:59;;;;;;;5.70;3.17;;;;;;;16.23;40.65;101626.91;5042191;27;99218;-75
2023/05/05 04:04:26;;;;;;;8.55;3.17;;;;;;;16.32;40.50;101621.16;5043060;27;96856;-75
2023/05/05 04:06:53;;;;;;;10.45;2.88;;;;;;;16.29;40.56;101638.16;5039549;27;96899;-73
2023/05/05 04:09:19;;;;;;;8.10;3.40;;;;;;;16.22;40.65;101631.34;5041957;27;99033;-74
2023/05/05 04:11:46;;;;;;;12.20;3.00;;;;;;;16.36;40.51;101633.41;5046612;27;99430;-73
2023/05/05 04:14:12;;;;;;;6.75;3.08;;;;;;;16.25;40.36;101633.91;5046986;27;96865;-74
2023/05/05 04:16:39;;;;;;;8.40;3.60;;;;;;;16.47;40.30;101625.81;5053741;27;97021;-74
2023/05/05 04:19:05;;;;;;;11.68;3.00;;;;;;;16.31;40.45;101633.63;5038411;27;99252;-74
2023/05/05 04:21:33;;;;;;;10.20;3.53;;;;;;;16.37;40.42;101627.16;5051048;27;101423;-74
2023/05/05 04:24:00;;;;;;;10.77;3.95;;;;;;;16.28;40.38;101627.53;5049306;27;96841;-74
2023/05/05 04:26:27;;;;;;;9.02;3.28;;;;;;;16.34;40.33;101630.81;5046982;27;97311;-76
2023/05/05 04:28:53;;;;;;;11.50;3.42;;;;;;;16.27;40.44;101632.03;5047630;27;97807;-75
2023/05/05 04:31:19;;;;;;;8.85;3.65;;;;;;;16.50;40.20;101635.44;5039849;27;101209;-74
2023/05/05 04:33:46;;;;;;;12.68;3.38;;;;;;;16.46;39.97;101642.75;5045098;27;97383;-74
2023/05/05 04:36:12;;;;;;;13.07;4.50;;;;;;;16.58;40.04;101644.84;5042003;27;99291;-75
2023/05/05 04:38:40;;;;;;;9.20;3.90;;;;;;;16.66;39.90;101644.53;5040640;27;98963;-74
2023/05/05 04:41:07;;;;;;;10.32;3.42;;;;;;;16.66;39.65;101650.72;5043651;27;99074;-76
2023/05/05 04:43:33;;;;;;;15.18;3.55;;;;;;;16.66;39.49;101649.88;5037108;27;96880;-74
2023/05/05 04:46:00;;;;;;;13.32;3.90;;;;;;;16.77;39.46;101647.53;5047051;27;97388;-74
2023/05/05 04:48:27;;;;;;;9.18;3.60;;;;;;;16.90;39.22;101655.84;5041615;27;99087;-74
2023/05/05 04:50:53;;;;;;;12.05;3.45;;;;;;;17.08;38.87;101655.81;5041978;27;99913;-73
2023/05/05 04:53:20;;;;;;;7.57;3.58;;;;;;;17.12;38.70;101660.09;5043910;27;98730;-74
2023/05/05 04:55:47;;;;;;;10.35;3.60;;;;;;;17.15;38.43;101669.75;5039098;27;98880;-73
2023/05/05 04:58:14;;;;;;;11.95;4.00;;;;;;;17.17;38.49;101675.88;5039897;27;100416;-73
2023/05/05 05:00:40;;;;;;;12.40;3.70;;;;;;;17.09;38.58;101670.91;5045575;27;99068;-73
2023/05/05 05:03:07;;;;;;;11.48;3.95;;;;;;;17.35;38.17;101666.09;5044804;27;99522;-74
2023/05/05 05:05:33;;;;;;;18.55;4.20;;;;;;;17.28;38.11;101672.69;5045826;27;96960;-74
2023/05/05 05:08:00;;;;;;;20.63;3.90;;;;;;;17.54;37.85;101667.78;5038434;27;98944;-75
2023/05/05 05:10:27;;;;;;;6.93;3.67;;;;;;;17.33;37.97;101674.19;5037008;27;99142;-73
2023/05/05 05:12:55;;;;;;;10.25;4.32;;;;;;;17.44;37.69;101677.22;5044421;27;97154;-74
2023/05/05 05:15:21;;;;;;;13.07;3.72;;;;;;;17.47;37.54;101677.06;5034859;27;98122;-73
2023/05/05 05:17:48;;;;;;;17.33;4.53;;;;;;;17.53;37.46;101673.22;5043824;27;102436;-74
2023/05/05 05:20:14;;;;;;;9.40;4.18;;;;;;;17.65;37.29;101667.31;5041666;27;98794;-74
2023/05/05 05:22:41;;;;;;;17.63;3.95;;;;;;;17.79;37.38;101677.28;5046233;27;96926;-75
2023/05/05 05:25:08;;;;;;;12.38;3.97;;;;;;;18.15;36.63;101674.53;5041001;27;96953;-75
2023/05/05 05:27:34;;;;;;;8.75;4.00;;;;;;;18.13;36.52;101677.28;5042431;27;98943;-74
2023/05/05 05:30:09;;;;;;;15.40;3.78;;;;;;;18.91;35.26;101675.78;5041389;27;100067;-75
2023/05/05 05:32:35;;;;;;;21.25;4.43;;;;;;;19.49;34.13;101678.75;5039780;27;96753;-75
2023/05/05 05:35:01;;;;;;;15.35;4.13;;;;;;;19.20;34.22;101671.47;5038471;27;100242;-74
2023/05/05 05:37:29;;;;;;;13.30;3.60;;;;;;;19.49;33.87;101668.03;5038203;27;99343;-74
2023/05/05 05:39:56;;;;;;;12.52;4.22;;;;;;;19.15;34.15;101676.22;5039296;27;98821;-75
2023/05/05 05:42:23;;;;;;;11.18;4.45;;;;;;;19.13;34.42;101676.31;5045919;27;96849;-75
2023/05/05 05:44:49;;;;;;;21.27;4.60;;;;;;;18.94;34.34;101675.63;5032584;27;98343;-74
2023/05/05 05:47:17;;;;;;;14.52;4.28;;;;;;;18.81;34.54;101678.13;5044255;27;98863;-74
2023/05/05 05:49:43;;;;;;;14.60;4.72;;;;;;;18.65;34.79;101687.91;5034124;27;98133;-74
2023/05/05 05:52:10;;;;;;;12.50;4.15;;;;;;;18.52;35.03;101679.66;5039474;27;97464;-73
2023/05/05 05:54:37;;;;;;;17.15;4.68;;;;;;;18.49;35.15;101677.16;5040256;27;97287;-74
2023/05/05 05:57:03;;;;;;;15.73;4.47;;;;;;;18.27;35.09;101679.22;5042048;27;99097;-73
2023/05/05 05:59:30;;;;;;;17.30;4.45;;;;;;;18.56;34.89;101680.41;5042931;27;97714;-73
2023/05/05 06:01:57;;;;;;;13.07;4.32;;;;;;;18.89;34.54;101666.97;5038815;27;96900;-74
2023/05/05 06:04:25;;;;;;;14.95;4.82;;;;;;;19.17;33.98;101666.28;5035063;27;96907;-73
2023/05/05 06:06:51;;;;;;;15.38;4.97;;;;;;;19.34;33.39;101669.75;5042251;27;99392;-74
2023/05/05 06:09:18;;;;;;;25.05;5.32;;;;;;;19.58;33.26;101671.97;5045840;27;98773;-74
2023/05/05 06:11:44;;;;;;;13.27;4.30;;;;;;;19.36;32.62;101672.34;5041477;27;98706;-74
2023/05/05 06:14:11;;;;;;;14.02;4.00;;;;;;;19.17;33.30;101672.50;5041779;27;97356;-72
2023/05/05 06:16:37;;;;;;;19.08;4.82;;;;;;;19.23;33.23;101671.31;5032156;27;99064;-74
2023/05/05 06:19:08;;;;;;;13.68;5.13;;;;;;;18.99;33.27;101678.91;5043770;27;101374;-74
2023/05/05 06:21:36;;;;;;;10.52;4.43;;;;;;;18.99;32.97;101673.53;5048289;27;96916;-74
2023/05/05 06:24:02;;;;;;;13.73;4.03;;;;;;;18.65;33.32;101680.75;5046599;27;99118;-75
2023/05/05 06:26:30;;;;;;;18.95;4.68;;;;;;;18.88;33.19;101667.94;5047735;27;97876;-74
2023/05/05 06:28:56;;;;;;;14.18;3.90;;;;;;;19.22;32.57;101677.63;5038038;27;100553;-74
2023/05/05 06:31:23;;;;;;;12.85;4.55;;;;;;;19.58;31.69;101674.66;5033901;27;96938;-76
2023/05/05 06:33:49;;;;;;;13.80;4.35;;;;;;;19.69;31.68;101680.28;5038936;27;98763;-74
2023/05/05 06:36:16;;;;;;;9.30;4.20;;;;;;;19.95;31.30;101684.97;5033758;27;99095;-74
2023/05/05 06:38:44;;;;;;;17.45;4.05;;;;;;;20.00;30.62;101688.22;5045473;27;99120;-73
2023/05/05 06:41:10;;;;;;;19.60;4.53;;;;;;;19.94;30.57;101685.91;5037859;27;97816;-74
2023/05/05 06:43:37;;;;;;;11.00;4.28;;;;;;;19.99;30.27;101686.50;5037087;27;97368;-74
2023/05/05 06:46:04;;;;;;;11.80;4.15;;;;;;;20.07;30.63;101680.66;5035077;27;97878;-75
2023/05/05 06:48:30;;;;;;;15.75;5.18;;;;;;;19.65;31.25;101678.72;5038628;27;98826;-75
2023/05/05 06:50:56;;;;;;;11.25;4.47;;;;;;;19.66;31.32;101675.06;5039149;27;96901;-75
2023/05/05 06:53:23;;;;;;;13.55;4.22;;;;;;;20.16;30.89;101672.91;5037082;27;98143;-76
2023/05/05 06:55:51;;;;;;;9.93;3.88;;;;;;;20.25;30.61;101679.53;5040537;27;98894;-74
2023/05/05 06:58:17;;;;;;;15.38;4.35;;;;;;;20.57;30.39;101683.81;5035927;27;98851;-75
2023/05/05 07:00:43;;;;;;;14.55;3.97;;;;;;;20.93;29.69;101686.03;5038471;27;96875;-74
2023/05/05 07:03:10;;;;;;;17.38;4.40;;;;;;;20.79;29.97;101683.34;5044709;27;96875;-75
2023/05/05 07:05:39;;;;;;;15.70;4.57;;;;;;;20.73;29.81;101688.25;5043549;27;98655;-74
2023/05/05 07:08:07;;;;;;;15.23;4.63;;;;;;;20.20;30.17;101695.06;5039954;27;99907;-74
2023/05/05 07:10:34;;;;;;;8.70;3.70;;;;;;;20.18;30.14;101691.59;5043308;27;97019;-75
2023/05/05 07:13:02;;;;;;;16.25;4.30;;;;;;;20.51;29.89;101694.94;5046458;27;96841;-75
2023/05/05 07:15:28;;;;;;;12.90;5.00;;;;;;;20.41;30.05;101691.13;5035337;27;99554;-75
2023/05/05 07:17:55;;;;;;;12.85;4.38;;;;;;;20.56;29.62;101689.28;5044367;27;102001;-74
2023/05/05 07:20:21;;;;;;;13.73;4.30;;;;;;;20.79;29.43;101686.03;5048893;27;97786;-75
2023/05/05 07:22:48;;;;;;;12.02;3.38;;;;;;;20.97;29.40;101684.84;5038526;27;97927;-74
2023/05/05 07:25:15;;;;;;;9.35;4.28;;;;;;;21.04;29.40;101691.56;5042281;27;98137;-74
2023/05/05 07:27:41;;;;;;;12.27;3.67;;;;;;;21.27;28.92;101686.53;5046335;27;98914;-75
2023/05/05 07:30:10;;;;;;;11.93;3.97;;;;;;;21.41;28.67;101686.50;5038861;27;96789;-75
2023/05/05 07:32:37;;;;;;;12.40;3.75;;;;;;;21.58;28.67;101696.16;5044458;27;96948;-76
2023/05/05 07:35:04;;;;;;;11.93;4.07;;;;;;;21.65;28.92;101702.84;5038618;27;98935;-75
2023/05/05 07:37:31;;;;;;;12.63;3.95;;;;;;;21.60;28.70;101700.44;5050364;27;100576;-75
2023/05/05 07:39:57;;;;;;;13.68;4.18;;;;;;;21.84;28.35;101703.34;5052135;27;97058;-75
2023/05/05 07:42:23;;;;;;;13.65;4.20;;;;;;;21.78;28.25;101704.63;5041865;27;97284;-74
2023/05/05 07:44:50;;;;;;;16.05;3.85;;;;;;;21.98;28.15;101710.50;5038360;27;98817;-75
2023/05/05 07:47:18;;;;;;;11.05;3.53;;;;;;;21.82;28.33;101707.94;5043035;27;98860;-76
2023/05/05 07:49:44;;;;;;;21.30;4.03;;;;;;;21.93;28.28;101715.28;5046514;27;97005;-74
2023/05/05 07:52:11;;;;;;;15.85;4.00;;;;;;;22.11;28.16;101709.56;5046146;27;96837;-74
2023/05/05 07:54:37;;;;;;;10.85;3.55;;;;;;;22.25;27.88;101720.22;5047813;27;99388;-76
2023/05/05 07:57:04;;;;;;;12.70;3.95;;;;;;;21.80;28.03;101717.94;5049003;27;101819;-75
2023/05/05 07:59:30;;;;;;;9.05;3.60;;;;;;;21.92;28.11;101716.28;5046053;27;96682;-75
2023/05/05 08:01:56;;;;;;;15.07;4.68;;;;;;;22.08;28.02;101714.28;5041717;27;96988;-76
2023/05/05 08:04:24;;;;;;;9.60;3.67;;;;;;;21.81;28.13;101698.16;5042407;27;99149;-74
2023/05/05 08:06:51;;;;;;;11.90;4.35;;;;;;;22.01;27.96;101704.91;5040940;27;99465;-75
2023/05/05 08:09:17;;;;;;;12.15;4.55;;;;;;;21.86;28.18;101696.88;5040931;27;97572;-76
2023/05/05 08:11:44;;;;;;;15.45;4.35;;;;;;;21.75;28.17;101694.06;5044058;27;97000;-75
2023/05/05 08:14:10;;;;;;;15.25;4.30;;;;;;;22.36;27.73;101697.09;5035211;27;98000;-74
2023/05/05 08:16:36;;;;;;;12.35;3.80;;;;;;;22.71;27.68;101694.63;5039847;27;102106;-74
2023/05/05 08:19:03;;;;;;;9.30;3.65;;;;;;;22.73;27.43;101681.91;5036756;27;97782;-74
2023/05/05 08:21:31;;;;;;;17.83;5.32;;;;;;;22.07;27.95;101682.94;5039844;27;97642;-75
2023/05/05 08:23:57;;;;;;;11.95;4.50;;;;;;;22.67;27.97;101675.97;5039241;27;99285;-75
2023/05/05 08:26:24;;;;;;;9.25;4.13;;;;;;;22.46;27.63;101684.69;5044702;27;97500;-75
2023/05/05 08:28:53;;;;;;;20.02;4.13;;;;;;;22.50;27.89;101691.63;5040184;27;97319;-74
2023/05/05 08:31:20;;;;;;;19.13;5.15;;;;;;;22.81;27.38;101687.63;5038949;27;96950;-75
2023/05/05 08:33:46;;;;;;;12.65;4.22;;;;;;;22.50;27.51;101697.88;5040153;27;99212;-75
2023/05/05 08:36:13;;;;;;;11.30;4.22;;;;;;;22.53;27.90;101686.84;5041201;27;98191;-75
2023/05/05 08:38:41;;;;;;;11.60;4.07;;;;;;;22.64;28.00;101688.81;5040150;27;98557;-76
2023/05/05 08:41:10;;;;;;;10.05;4.28;;;;;;;23.02;27.56;101680.69;5037634;27;97357;-75
2023/05/05 08:43:37;;;;;;;13.55;4.13;;;;;;;22.92;27.66;101676.91;5041352;27;98668;-76
2023/05/05 08:46:04;;;;;;;13.40;4.25;;;;;;;22.81;27.69;101683.09;5037404;27;100692;-77
2023/05/05 08:48:33;;;;;;;9.63;3.80;;;;;;;22.90;27.10;101677.06;5039698;27;97779;-75
2023/05/05 08:51:05;;;;;;;13.05;5.10;;;;;;;22.77;27.54;101678.06;5035278;27;96843;-74
2023/05/05 08:53:41;;;;;;;16.00;5.35;;;;;;;22.55;27.71;101690.31;5039311;27;102066;-74
2023/05/05 08:56:09;;;;;;;15.52;4.65;;;;;;;22.53;27.96;101686.84;5036775;27;100514;-75
2023/05/05 08:58:37;;;;;;;11.50;4.30;;;;;;;22.78;27.83;101685.13;5033894;27;97386;-74
2023/05/05 09:01:05;;;;;;;10.10;4.10;;;;;;;23.04;27.48;101686.81;5033066;27;97023;-74
2023/05/05 09:03:31;;;;;;;10.50;4.25;;;;;;;22.80;27.84;101686.75;5035302;27;97370;-75
2023/05/05 09:05:58;;;;;;;11.98;4.63;;;;;;;22.60;27.82;101693.53;5040012;27;99937;-75
2023/05/05 09:08:26;;;;;;;13.57;4.65;;;;;;;22.79;27.78;101689.56;5031150;27;97050;-74
2023/05/05 09:10:52;;;;;;;8.55;3.80;;;;;;;23.10;27.59;101681.00;5032756;27;97079;-74
2023/05/05 09:13:20;;;;;;;14.40;4.10;;;;;;;23.51;27.06;101691.44;5036710;27;99543;-74
2023/05/05 09:15:47;;;;;;;10.68;4.03;;;;;;;23.80;26.79;101684.72;5038761;27;100184;-76
2023/05/05 09:18:13;;;;;;;11.40;4.43;;;;;;;23.90;26.80;101687.53;5037892;27;97236;-75
2023/05/05 09:20:40;;;;;;;11.90;4.45;;;;;;;23.90;26.17;101675.88;5040118;27;97205;-75
2023/05/05 09:23:11;;;;;;;10.80;4.45;;;;;;;23.61;26.52;101683.50;5034827;27;99060;-75
2023/05/05 09:25:39;;;;;;;9.90;3.85;;;;;;;23.38;26.68;101677.09;5038159;27;97760;-74
2023/05/05 09:28:09;;;;;;;15.57;4.30;;;;;;;23.35;26.76;101674.66;5037328;27;96881;-74
2023/05/05 09:30:38;;;;;;;17.45;3.78;;;;;;;23.44;26.73;101673.94;5035621;27;97313;-75
2023/05/05 09:33:04;;;;;;;18.20;4.65;;;;;;;23.49;26.92;101676.34;5035223;27;100662;-74
2023/05/05 09:35:48;;;;;;;10.77;4.10;;;;;;;23.55;26.48;101670.50;5036861;27;99105;-76
2023/05/05 09:38:14;;;;;;;8.57;3.88;;;;;;;23.22;26.73;101674.69;5036445;27;97194;-75
2023/05/05 09:40:45;;;;;;;11.05;4.00;;;;;;;23.51;26.91;101664.44;5045134;27;97954;-75
2023/05/05 09:43:12;;;;;;;17.15;4.20;;;;;;;23.70;26.34;101662.06;5039784;27;98903;-76
2023/05/05 09:45:40;;;;;;;13.18;3.83;;;;;;;23.63;26.44;101665.38;5041377;27;98813;-76
2023/05/05 09:48:07;;;;;;;9.88;4.03;;;;;;;23.55;26.86;101667.78;5036074;27;96797;-77
2023/05/05 09:50:43;;;;;;;19.98;3.47;;;;;;;23.83;26.61;101675.50;5036795;27;96947;-75
2023/05/05 09:53:10;;;;;;;16.52;3.92;;;;;;;23.49;26.40;101668.25;5037463;27;98489;-75
2023/05/05 09:55:37;;;;;;;14.68;4.35;;;;;;;23.49;26.76;101679.91;5043094;27;97743;-74
2023/05/05 09:58:18;;;;;;;8.70;3.55;;;;;;;23.52;26.61;101679.66;5043403;27;96809;-76
2023/05/05 10:00:46;;;;;;;6.75;3.97;;;;;;;;;;5038328;27;96895;-74
2023/05/05 10:03:12;;;;;;;13.95;4.00;;;;;;;23.84;26.25;101679.91;5037194;27;98638;-76
2023/05/05 10:05:49;;;;;;;12.82;3.60;;;;;;;24.15;26.10;101671.19;5040633;27;101801;-76
2023/05/05 10:08:16;;;;;;;;;;;;;;;24.36;25.79;101662.41;5043457;27;97453;-76
2023/05/05 10:10:47;;;;;;;9.15;3.33;;;;;;;24.80;25.65;101673.25;5040833;27;97359;-75
2023/05/05 10:13:17;;;;;;;13.43;3.65;;;;;;;24.22;25.93;101669.75;5037429;27;98139;-76
2023/05/05 10:15:48;;;;;;;8.73;3.85;;;;;;;23.88;26.14;101669.78;5038727;27;98131;-75
2023/05/05 10:18:19;;;;;;;10.35;4.28;;;;;;;23.93;26.20;101664.88;5038670;27;96753;-75
2023/05/05 10:20:48;;;;;;;17.85;3.70;;;;;;;23.96;26.67;101660.06;5037770;27;97206;-75
2023/05/05 10:23:18;;;;;;;20.80;3.55;;;;;;;24.36;26.17;101659.69;5038327;27;98876;-74
2023/05/05 10:25:51;;;;;;;14.70;3.72;;;;;;;24.42;25.93;101651.09;5034592;27;96740;-76
2023/05/05 10:28:25;;;;;;;11.70;3.75;;;;;;;24.60;25.77;101655.94;5041857;27;96874;-75
2023/05/05 10:30:56;;;;;;;11.57;5.00;;;;;;;24.47;25.64;101652.50;5040468;27;96867;-75
2023/05/05 10:33:30;;;;;;;8.73;3.33;;;;;;;24.71;25.68;101654.19;5038900;27;98936;-75
2023/05/05 10:36:02;;;;;;;13.45;3.90;;;;;;;24.44;26.07;101658.13;5041179;27;97579;-76
2023/05/05 10:38:28;;;;;;;19.58;3.90;;;;;;;24.64;25.97;101645.72;5036657;27;96919;-75
2023/05/05 10:40:57;;;;;;;9.27;3.50;;;;;;;24.41;25.89;101655.69;5034424;27;97743;-74
2023/05/05 10:43:24;;;;;;;9.43;3.13;;;;;;;24.37;26.01;101653.31;5038186;27;99129;-74
2023/05/05 10:45:51;;;;;;;9.02;3.83;;;;;;;24.46;26.14;101647.19;5041219;27;98821;-76
2023/05/05 10:48:31;;;;;;;8.57;3.97;;;;;;;24.12;26.26;101651.66;5036299;27;97823;-75
2023/05/05 10:51:07;;;;;;;16.63;3.75;;;;;;;24.30;25.80;101642.13;5039121;27;96857;-74
2023/05/05 10:53:42;;;;;;;10.00;3.50;;;;;;;24.16;26.03;101645.88;5036844;27;99022;-76
2023/05/05 10:56:14;;;;;;;7.57;3.63;;;;;;;23.88;26.36;101649.03;5036049;27;98203;-75
2023/05/05 10:58:41;;;;;;;7.55;3.35;;;;;;;23.97;26.76;101647.44;5035099;27;100761;-77
2023/05/05 11:01:08;;;;;;;6.38;3.05;;;;;;;24.03;26.21;101645.13;5034279;27;97062;-75
2023/05/05 11:03:36;;;;;;;8.85;3.38;;;;;;;24.14;26.55;101631.69;5036513;27;99010;-77
2023/05/05 11:06:11;;;;;;;12.68;3.20;;;;;;;24.30;26.23;101631.34;5041251;27;98788;-76
2023/05/05 11:08:39;;;;;;;9.07;3.35;;;;;;;24.36;26.13;101614.66;5047189;27;97081;-76
2023/05/05 11:11:06;;;;;;;8.57;3.55;;;;;;;24.39;26.43;101624.34;5031428;27;97324;-76
2023/05/05 11:13:33;;;;;;;7.53;3.30;;;;;;;24.60;26.05;101612.69;5046497;27;99132;-77
2023/05/05 11:16:02;;;;;;;11.95;3.47;;;;;;;24.68;25.84;101619.34;5040154;27;97489;-77
2023/05/05 11:18:34;;;;;;;14.05;3.63;;;;;;;24.81;25.33;101612.78;5042700;27;97198;-74
2023/05/05 11:21:16;;;;;;;10.38;3.22;;;;;;;24.97;25.78;101618.69;5041111;27;97434;-76
2023/05/05 11:23:45;;;;;;;8.07;3.22;;;;;;;24.81;25.82;101609.25;5038388;27;99802;-75